createdAt,value
2023-01-01T00:00:19.125Z,84.71
2023-01-01T00:03:06.126Z,84.44
2023-01-01T00:05:34.264Z,84.62
2023-01-01T00:08:05.079Z,83.95
2023-01-01T00:10:32.911Z,83.83
2023-01-01T00:13:00.476Z,83.83
2023-01-01T00:15:28.226Z,84.12
2023-01-01T00:17:55.491Z,84.12
2023-01-01T00:20:22.847Z,83.26
2023-01-01T00:22:55.033Z,82.91
2023-01-01T00:25:24.248Z,82.75
2023-01-01T00:27:51.426Z,82.94
2023-01-01T00:30:18.914Z,82.54
2023-01-01T00:32:55.252Z,82.69
2023-01-01T00:35:24.882Z,82.42
2023-01-01T00:37:52.576Z,82.28
2023-01-01T00:40:19.927Z,82.52
2023-01-01T00:42:46.802Z,82.49
2023-01-01T00:45:20.545Z,82.72
2023-01-01T00:47:49.007Z,82.63
2023-01-01T00:50:16.444Z,82.42
2023-01-01T00:52:43.645Z,82.28
2023-01-01T00:55:11.763Z,82.34
2023-01-01T00:57:38.693Z,82.56
2023-01-01T01:00:06.589Z,82.50
2023-01-01T01:02:33.936Z,82.55
2023-01-01T01:05:04.848Z,81.89
2023-01-01T01:07:38.574Z,82.14
2023-01-01T01:10:07.012Z,82.23
2023-01-01T01:12:35.088Z,82.50
2023-01-01T01:15:03.729Z,82.68
2023-01-01T01:17:30.667Z,82.80
2023-01-01T01:19:57.908Z,83.03
2023-01-01T01:22:28.787Z,83.38
2023-01-01T01:24:56.614Z,83.62
2023-01-01T01:27:24.113Z,82.97
2023-01-01T01:29:51.581Z,82.69
2023-01-01T01:32:18.684Z,82.75
2023-01-01T01:34:46.348Z,82.91
2023-01-01T01:37:13.861Z,82.98
2023-01-01T01:39:41.120Z,82.99
2023-01-01T01:42:08.188Z,82.45
2023-01-01T01:44:53.009Z,82.37
2023-01-01T01:47:46.462Z,82.44
2023-01-01T01:50:17.255Z,82.47
2023-01-01T01:52:59.907Z,82.58
2023-01-01T01:55:31.003Z,82.52
2023-01-01T01:57:58.173Z,81.83
2023-01-01T02:00:25.356Z,81.28
2023-01-01T02:03:18.316Z,81.22
2023-01-01T02:05:46.485Z,81.33
2023-01-01T02:08:15.783Z,81.13
2023-01-01T02:10:43.685Z,79.94
2023-01-01T02:13:11.320Z,80.03
2023-01-01T02:15:53.054Z,79.40
2023-01-01T02:18:29.335Z,79.36
2023-01-01T02:21:07.172Z,79.38
2023-01-01T02:24:00.734Z,79.24
2023-01-01T02:26:40.665Z,79.05
2023-01-01T02:29:19.686Z,77.50
2023-01-01T02:31:58.344Z,77.45
2023-01-01T02:34:30.223Z,76.17
2023-01-01T02:37:01.160Z,76.07
2023-01-01T02:39:32.195Z,74.48
2023-01-01T02:42:01.117Z,74.51
2023-01-01T02:44:30.812Z,74.65
2023-01-01T02:47:07.408Z,74.37
2023-01-01T02:49:40.756Z,74.28
2023-01-01T02:52:16.230Z,73.93
2023-01-01T02:54:53.890Z,73.95
2023-01-01T02:57:43.450Z,73.65
2023-01-01T03:00:27.704Z,73.56
2023-01-01T03:03:17.741Z,73.51
2023-01-01T03:06:23.845Z,73.59
2023-01-01T03:09:11.963Z,73.69
2023-01-01T03:11:50.992Z,73.51
2023-01-01T03:14:40.108Z,73.34
2023-01-01T03:17:17.467Z,73.50
2023-01-01T03:19:49.064Z,73.09
2023-01-01T03:22:19.057Z,73.48
2023-01-01T03:24:58.167Z,72.74
2023-01-01T03:27:37.559Z,72.78
2023-01-01T03:30:09.121Z,72.69
2023-01-01T03:33:03.337Z,72.36
2023-01-01T03:35:41.075Z,72.37
2023-01-01T03:38:17.032Z,71.99
2023-01-01T03:40:47.164Z,72.13
2023-01-01T03:43:25.247Z,71.85
2023-01-01T03:45:54.553Z,71.48
2023-01-01T03:48:21.521Z,70.73
2023-01-01T03:51:16.447Z,70.37
2023-01-01T03:53:44.046Z,69.94
2023-01-01T03:56:27.277Z,70.13
2023-01-01T03:59:01.109Z,70.31
2023-01-01T04:01:36.145Z,70.03
2023-01-01T04:04:05.300Z,69.83
2023-01-01T04:06:33.900Z,69.53
2023-01-01T04:09:03.304Z,69.39
2023-01-01T04:11:51.608Z,69.59
2023-01-01T04:14:39.360Z,69.63
2023-01-01T04:17:08.302Z,69.53
2023-01-01T04:19:35.385Z,69.63
2023-01-01T04:22:03.350Z,69.75
2023-01-01T04:24:30.593Z,69.59
2023-01-01T04:26:57.848Z,69.66
2023-01-01T04:29:24.815Z,69.59
2023-01-01T04:31:52.150Z,69.21
2023-01-01T04:34:19.327Z,69.04
2023-01-01T04:36:46.694Z,69.27
2023-01-01T04:39:13.714Z,68.52
2023-01-01T04:41:40.924Z,68.67
2023-01-01T04:44:07.801Z,68.42
2023-01-01T04:46:35.006Z,68.35
2023-01-01T04:49:01.909Z,68.46
2023-01-01T04:51:29.087Z,68.34
2023-01-01T04:53:59.338Z,68.20
2023-01-01T04:56:26.584Z,67.98
2023-01-01T04:58:54.039Z,67.09
2023-01-01T05:01:24.568Z,67.13
2023-01-01T05:03:52.263Z,66.95
2023-01-01T05:06:21.027Z,66.77
2023-01-01T05:08:50.803Z,66.62
2023-01-01T05:11:24.474Z,66.28
2023-01-01T05:13:53.591Z,66.42
2023-01-01T05:16:24.156Z,65.56
2023-01-01T05:18:51.843Z,65.35
2023-01-01T05:21:25.260Z,64.82
2023-01-01T05:24:00.656Z,64.48
2023-01-01T05:26:31.283Z,64.72
2023-01-01T05:28:59.764Z,64.53
2023-01-01T05:31:31.267Z,64.72
2023-01-01T05:36:28.286Z,64.63
2023-01-01T05:38:56.204Z,64.43
2023-01-01T05:41:23.849Z,64.54
2023-01-01T05:43:52.118Z,64.50
2023-01-01T05:46:22.370Z,64.94
2023-01-01T05:48:50.140Z,64.88
2023-01-01T05:51:20.568Z,64.77
2023-01-01T05:53:48.145Z,64.91
2023-01-01T05:56:16.395Z,65.12
2023-01-01T05:58:44.402Z,65.24
2023-01-01T06:01:18.218Z,64.38
2023-01-01T06:03:45.425Z,64.55
2023-01-01T06:06:15.462Z,64.84
2023-01-01T06:08:42.799Z,64.43
2023-01-01T06:11:12.910Z,64.55
2023-01-01T06:13:39.859Z,64.77
2023-01-01T06:16:07.513Z,64.85
2023-01-01T06:18:35.454Z,64.53
2023-01-01T06:21:10.419Z,64.69
2023-01-01T06:23:37.888Z,64.21
2023-01-01T06:26:16.490Z,64.06
2023-01-01T06:28:44.283Z,64.35
2023-01-01T06:31:13.719Z,64.26
2023-01-01T06:33:41.496Z,64.13
2023-01-01T06:36:11.348Z,64.26
2023-01-01T06:38:42.291Z,64.57
2023-01-01T06:41:15.364Z,64.86
2023-01-01T06:43:42.640Z,65.09
2023-01-01T06:46:23.365Z,65.35
2023-01-01T06:48:55.831Z,65.48
2023-01-01T06:51:25.508Z,65.41
2023-01-01T06:53:53.619Z,65.76
2023-01-01T06:56:21.506Z,65.46
2023-01-01T06:58:49.403Z,65.18
2023-01-01T07:01:19.216Z,65.51
2023-01-01T07:03:53.257Z,65.32
2023-01-01T07:06:21.231Z,65.48
2023-01-01T07:08:48.179Z,65.03
2023-01-01T07:11:15.403Z,65.33
2023-01-01T07:13:44.395Z,64.95
2023-01-01T07:16:13.350Z,65.31
2023-01-01T07:18:40.997Z,64.48
2023-01-01T07:21:33.862Z,63.87
2023-01-01T07:24:02.835Z,64.09
2023-01-01T07:26:31.702Z,64.49
2023-01-01T07:29:06.237Z,64.17
2023-01-01T07:31:37.444Z,64.29
2023-01-01T07:34:06.147Z,63.90
2023-01-01T07:36:33.677Z,63.95
2023-01-01T07:39:00.657Z,64.26
2023-01-01T07:41:27.928Z,64.20
2023-01-01T07:43:54.796Z,64.07
2023-01-01T07:46:22.074Z,63.49
2023-01-01T07:48:49.036Z,63.45
2023-01-01T07:51:16.280Z,63.25
2023-01-01T07:53:43.814Z,62.80
2023-01-01T07:56:11.259Z,62.46
2023-01-01T07:58:41.980Z,62.48
2023-01-01T08:01:15.856Z,62.01
2023-01-01T08:03:44.416Z,61.91
2023-01-01T08:06:13.675Z,61.49
2023-01-01T08:08:41.384Z,61.60
2023-01-01T08:11:09.095Z,61.48
2023-01-01T08:13:36.084Z,60.94
2023-01-01T08:16:03.561Z,61.12
2023-01-01T08:18:30.565Z,60.51
2023-01-01T08:20:57.807Z,60.69
2023-01-01T08:23:24.854Z,60.89
2023-01-01T08:25:52.341Z,61.14
2023-01-01T08:28:20.232Z,60.75
2023-01-01T08:30:47.481Z,60.81
2023-01-01T08:33:14.451Z,60.70
2023-01-01T08:35:42.761Z,60.38
2023-01-01T08:38:12.802Z,60.36
2023-01-01T08:40:40.387Z,60.13
2023-01-01T08:43:07.509Z,59.53
2023-01-01T08:45:34.900Z,59.14
2023-01-01T08:48:01.825Z,58.91
2023-01-01T08:50:29.047Z,59.17
2023-01-01T08:52:58.311Z,59.15
2023-01-01T08:55:25.613Z,59.53
2023-01-01T08:57:52.582Z,59.57
2023-01-01T09:00:21.023Z,59.02
2023-01-01T09:02:47.988Z,58.95
2023-01-01T09:05:15.692Z,58.91
2023-01-01T09:07:42.744Z,58.49
2023-01-01T09:10:10.337Z,57.84
2023-01-01T09:12:37.263Z,57.78
2023-01-01T09:15:05.158Z,57.35
2023-01-01T09:17:32.294Z,56.28
2023-01-01T09:20:00.045Z,55.93
2023-01-01T09:22:28.211Z,55.56
2023-01-01T09:24:55.509Z,55.51
2023-01-01T09:27:22.693Z,54.88
2023-01-01T09:29:49.849Z,54.31
2023-01-01T09:32:16.840Z,54.25
2023-01-01T09:34:50.349Z,54.21
2023-01-01T09:37:19.233Z,53.83
2023-01-01T09:39:46.677Z,53.45
2023-01-01T09:42:27.027Z,53.27
2023-01-01T09:44:54.670Z,53.13
2023-01-01T09:47:40.208Z,52.56
2023-01-01T09:50:20.219Z,52.36
2023-01-01T09:53:01.115Z,51.86
2023-01-01T09:55:35.054Z,51.06
2023-01-01T09:58:02.205Z,50.38
2023-01-01T10:00:35.397Z,50.78
2023-01-01T10:03:28.007Z,50.39
2023-01-01T10:06:00.352Z,50.05
2023-01-01T10:08:41.212Z,49.99
2023-01-01T10:11:20.314Z,49.67
2023-01-01T10:13:47.604Z,48.43
2023-01-01T10:16:28.582Z,48.92
2023-01-01T10:18:59.032Z,48.76
2023-01-01T10:21:36.674Z,48.92
2023-01-01T10:24:32.916Z,49.17
2023-01-01T10:27:04.525Z,48.88
2023-01-01T10:29:44.247Z,49.16
2023-01-01T10:32:19.529Z,49.04
2023-01-01T10:34:47.875Z,48.97
2023-01-01T10:37:15.532Z,49.14
2023-01-01T10:39:45.017Z,48.81
2023-01-01T10:42:13.682Z,48.84
2023-01-01T10:44:41.814Z,48.80
2023-01-01T10:47:29.470Z,48.81
2023-01-01T10:50:02.748Z,48.56
2023-01-01T10:52:41.444Z,47.85
2023-01-01T10:55:23.746Z,47.84
2023-01-01T10:57:50.984Z,47.73
2023-01-01T11:00:26.652Z,47.02
2023-01-01T11:03:20.480Z,46.94
2023-01-01T11:06:19.101Z,47.00
2023-01-01T11:08:53.054Z,46.60
2023-01-01T11:11:28.382Z,47.06
2023-01-01T11:14:01.503Z,47.12
2023-01-01T11:16:29.719Z,46.39
2023-01-01T11:19:24.795Z,46.77
2023-01-01T11:21:51.832Z,46.74
2023-01-01T11:24:24.001Z,46.88
2023-01-01T11:26:55.103Z,46.40
2023-01-01T11:29:28.779Z,46.29
2023-01-01T11:31:58.426Z,46.38
2023-01-01T11:34:36.342Z,46.16
2023-01-01T11:37:26.535Z,46.34
2023-01-01T11:39:55.799Z,46.48
2023-01-01T11:42:29.099Z,46.63
2023-01-01T11:45:37.401Z,46.17
2023-01-01T11:48:12.448Z,46.42
2023-01-01T11:50:41.761Z,46.23
2023-01-01T11:53:24.501Z,46.66
2023-01-01T11:56:03.568Z,46.77
2023-01-01T11:58:36.571Z,46.98
2023-01-01T12:01:10.467Z,47.08
2023-01-01T12:03:47.224Z,46.88
2023-01-01T12:06:27.337Z,46.86
2023-01-01T12:09:06.348Z,46.69
2023-01-01T12:11:52.695Z,46.91
2023-01-01T12:14:33.123Z,46.88
2023-01-01T12:17:05.502Z,46.67
2023-01-01T12:19:41.351Z,46.68
2023-01-01T12:22:19.332Z,46.85
2023-01-01T12:24:48.502Z,47.09
2023-01-01T12:27:18.859Z,46.89
2023-01-01T12:29:54.888Z,47.03
2023-01-01T12:32:37.558Z,47.20
2023-01-01T12:35:32.683Z,47.38
2023-01-01T12:38:19.205Z,47.29
2023-01-01T12:41:41.938Z,47.43
2023-01-01T12:44:20.898Z,47.57
2023-01-01T12:47:12.360Z,47.66
2023-01-01T12:49:39.565Z,47.34
2023-01-01T12:52:20.374Z,47.77
2023-01-01T12:54:59.484Z,47.49
2023-01-01T12:57:39.954Z,47.60
2023-01-01T13:00:19.881Z,48.07
2023-01-01T13:02:49.235Z,47.72
2023-01-01T13:05:26.280Z,48.39
2023-01-01T13:08:00.302Z,48.37
2023-01-01T13:10:34.383Z,48.43
2023-01-01T13:13:02.161Z,48.61
2023-01-01T13:15:38.606Z,48.91
2023-01-01T13:18:13.113Z,48.73
2023-01-01T13:20:55.049Z,48.90
2023-01-01T13:23:38.523Z,49.09
2023-01-01T13:26:18.403Z,49.43
2023-01-01T13:28:57.585Z,49.81
2023-01-01T13:31:41.106Z,49.69
2023-01-01T13:34:31.565Z,49.79
2023-01-01T13:37:11.205Z,50.17
2023-01-01T13:40:13.646Z,50.25
2023-01-01T13:43:06.715Z,50.40
2023-01-01T13:49:00.915Z,50.81
2023-01-01T13:52:07.034Z,50.63
2023-01-01T13:55:04.139Z,50.93
2023-01-01T13:57:49.849Z,51.14
2023-01-01T14:00:24.144Z,51.25
2023-01-01T14:02:59.704Z,51.58
2023-01-01T14:05:33.838Z,51.79
2023-01-01T14:08:01.896Z,51.81
2023-01-01T14:10:32.012Z,52.11
2023-01-01T14:13:10.943Z,52.13
2023-01-01T14:15:40.725Z,52.25
2023-01-01T14:18:15.577Z,52.56
2023-01-01T14:20:44.883Z,52.71
2023-01-01T14:23:17.161Z,52.96
2023-01-01T14:25:45.489Z,52.81
2023-01-01T14:28:24.336Z,53.28
2023-01-01T14:30:53.498Z,53.31
2023-01-01T14:33:27.114Z,53.47
2023-01-01T14:35:56.713Z,53.61
2023-01-01T14:38:35.431Z,53.54
2023-01-01T14:41:14.216Z,54.11
2023-01-01T14:43:44.106Z,54.45
2023-01-01T14:46:19.110Z,54.59
2023-01-01T14:48:49.395Z,54.90
2023-01-01T14:51:22.562Z,54.76
2023-01-01T14:53:51.611Z,54.88
2023-01-01T14:56:37.229Z,55.22
2023-01-01T14:59:12.109Z,55.25
2023-01-01T15:01:42.785Z,55.38
2023-01-01T15:04:23.314Z,56.01
2023-01-01T15:06:59.392Z,56.26
2023-01-01T15:09:28.795Z,56.81
2023-01-01T15:11:57.632Z,56.48
2023-01-01T15:14:38.437Z,56.50
2023-01-01T15:17:11.503Z,56.52
2023-01-01T15:19:43.605Z,57.15
2023-01-01T15:22:16.001Z,57.44
2023-01-01T15:24:45.666Z,57.75
2023-01-01T15:27:27.220Z,58.04
2023-01-01T15:29:56.960Z,58.42
2023-01-01T15:32:36.627Z,58.89
2023-01-01T15:35:22.682Z,59.03
2023-01-01T15:37:56.509Z,58.80
2023-01-01T15:40:23.474Z,59.14
2023-01-01T15:42:56.684Z,59.30
2023-01-01T15:45:27.909Z,59.44
2023-01-01T15:48:10.584Z,59.50
2023-01-01T15:50:44.176Z,59.59
2023-01-01T15:53:29.596Z,60.02
2023-01-01T15:56:10.183Z,60.30
2023-01-01T15:58:48.273Z,60.53
2023-01-01T16:01:21.717Z,60.72
2023-01-01T16:03:52.358Z,60.82
2023-01-01T16:06:21.762Z,60.84
2023-01-01T16:08:49.205Z,61.02
2023-01-01T16:11:16.217Z,61.06
2023-01-01T16:13:43.469Z,61.27
2023-01-01T16:16:30.039Z,61.53
2023-01-01T16:18:58.148Z,61.61
2023-01-01T16:21:28.273Z,61.42
2023-01-01T16:23:56.152Z,61.66
2023-01-01T16:26:23.207Z,62.00
2023-01-01T16:28:50.858Z,61.83
2023-01-01T16:31:26.631Z,62.37
2023-01-01T16:33:56.444Z,62.43
2023-01-01T16:36:23.643Z,62.31
2023-01-01T16:38:50.868Z,62.29
2023-01-01T16:41:18.529Z,62.59
2023-01-01T16:43:47.152Z,62.37
2023-01-01T16:46:15.248Z,62.34
2023-01-01T16:48:42.872Z,62.37
2023-01-01T16:51:18.768Z,62.77
2023-01-01T16:53:46.999Z,62.85
2023-01-01T16:56:14.682Z,62.88
2023-01-01T16:58:52.344Z,63.00
2023-01-01T17:01:22.684Z,62.33
2023-01-01T17:03:50.450Z,62.72
2023-01-01T17:06:17.911Z,62.58
2023-01-01T17:08:45.322Z,62.40
2023-01-01T17:11:17.647Z,62.54
2023-01-01T17:13:46.778Z,62.89
2023-01-01T17:16:23.540Z,63.28
2023-01-01T17:21:40.494Z,63.70
2023-01-01T17:24:07.951Z,63.84
2023-01-01T17:26:35.005Z,63.98
2023-01-01T17:29:03.099Z,63.79
2023-01-01T17:31:30.271Z,63.95
2023-01-01T17:33:57.757Z,63.87
2023-01-01T17:36:27.390Z,64.27
2023-01-01T17:38:55.279Z,63.80
2023-01-01T17:41:22.868Z,64.21
2023-01-01T17:43:51.537Z,64.43
2023-01-01T17:46:26.499Z,64.86
2023-01-01T17:48:54.174Z,65.16
2023-01-01T17:51:21.759Z,65.16
2023-01-01T17:53:50.451Z,65.48
2023-01-01T17:56:18.920Z,65.93
2023-01-01T17:58:47.905Z,65.72
2023-01-01T18:01:24.020Z,66.01
2023-01-01T18:03:54.179Z,66.29
2023-01-01T18:06:21.650Z,66.63
2023-01-01T18:08:49.422Z,66.71
2023-01-01T18:11:16.359Z,66.64
2023-01-01T18:13:43.632Z,66.92
2023-01-01T18:16:10.858Z,66.85
2023-01-01T18:18:39.750Z,66.93
2023-01-01T18:21:10.364Z,67.14
2023-01-01T18:23:39.992Z,67.02
2023-01-01T18:26:09.484Z,66.97
2023-01-01T18:28:37.432Z,66.99
2023-01-01T18:31:16.963Z,67.11
2023-01-01T18:33:46.835Z,67.18
2023-01-01T18:36:20.698Z,67.22
2023-01-01T18:39:20.805Z,67.32
2023-01-01T18:42:09.324Z,67.34
2023-01-01T18:44:36.612Z,67.50
2023-01-01T18:47:06.468Z,67.19
2023-01-01T18:49:35.623Z,67.31
2023-01-01T18:52:05.419Z,67.34
2023-01-01T18:54:33.812Z,67.70
2023-01-01T18:57:29.154Z,67.86
2023-01-01T19:00:17.009Z,67.75
2023-01-01T19:02:50.267Z,67.84
2023-01-01T19:05:24.783Z,68.05
2023-01-01T19:07:59.338Z,68.37
2023-01-01T19:10:34.316Z,68.57
2023-01-01T19:13:29.263Z,68.55
2023-01-01T19:16:02.870Z,68.63
2023-01-01T19:18:32.751Z,68.60
2023-01-01T19:21:14.649Z,68.83
2023-01-01T19:23:52.408Z,68.79
2023-01-01T19:26:28.753Z,68.61
2023-01-01T19:28:57.737Z,68.76
2023-01-01T19:31:24.998Z,68.45
2023-01-01T19:33:51.975Z,68.16
2023-01-01T19:36:20.324Z,68.43
2023-01-01T19:38:47.408Z,68.64
2023-01-01T19:41:14.561Z,68.46
2023-01-01T19:43:41.511Z,68.73
2023-01-01T19:46:09.010Z,68.66
2023-01-01T19:48:36.125Z,68.83
2023-01-01T19:51:03.369Z,69.01
2023-01-01T19:53:30.391Z,69.32
2023-01-01T19:55:57.607Z,69.51
2023-01-01T19:58:24.602Z,69.58
2023-01-01T20:00:52.944Z,69.75
2023-01-01T20:06:09.618Z,69.75
2023-01-01T20:08:40.077Z,69.80
2023-01-01T20:11:08.652Z,69.94
2023-01-01T20:13:35.672Z,70.04
2023-01-01T20:16:03.398Z,70.05
2023-01-01T20:18:30.425Z,69.95
2023-01-01T20:21:21.954Z,70.42
2023-01-01T20:23:52.474Z,70.62
2023-01-01T20:26:20.837Z,70.71
2023-01-01T20:29:06.533Z,70.84
2023-01-01T20:31:33.747Z,70.98
2023-01-01T20:34:00.888Z,70.94
2023-01-01T20:36:47.047Z,70.83
2023-01-01T20:39:13.991Z,70.93
2023-01-01T20:41:41.266Z,71.01
2023-01-01T20:44:08.305Z,71.25
2023-01-01T20:46:38.283Z,70.92
2023-01-01T20:49:05.976Z,70.92
2023-01-01T20:51:33.400Z,71.18
2023-01-01T20:54:00.483Z,71.19
2023-01-01T20:56:27.775Z,71.23
2023-01-01T20:59:00.144Z,71.20
2023-01-01T21:01:32.192Z,70.79
2023-01-01T21:03:59.323Z,70.23
2023-01-01T21:06:26.579Z,70.28
2023-01-01T21:08:55.438Z,70.51
2023-01-01T21:11:22.883Z,70.59
2023-01-01T21:13:50.128Z,70.71
2023-01-01T21:16:18.734Z,70.48
2023-01-01T21:18:47.146Z,70.44
2023-01-01T21:21:32.980Z,70.57
2023-01-01T21:24:30.360Z,70.76
2023-01-01T21:27:08.609Z,70.81
2023-01-01T21:29:39.597Z,71.04
2023-01-01T21:32:12.947Z,71.18
2023-01-01T21:34:43.860Z,71.41
2023-01-01T21:37:54.635Z,71.60
2023-01-01T21:40:38.544Z,71.76
2023-01-01T21:43:05.878Z,71.87
2023-01-01T21:45:42.776Z,71.85
2023-01-01T21:48:16.592Z,71.92
2023-01-01T21:50:46.515Z,72.17
2023-01-01T21:53:19.529Z,72.07
2023-01-01T21:55:52.555Z,72.36
2023-01-01T21:58:41.273Z,72.60
2023-01-01T22:01:27.668Z,72.52
2023-01-01T22:04:21.398Z,72.79
2023-01-01T22:06:51.464Z,72.96
2023-01-01T22:09:32.701Z,73.25
2023-01-01T22:12:14.789Z,73.30
2023-01-01T22:14:47.217Z,73.46
2023-01-01T22:17:36.782Z,73.85
2023-01-01T22:20:24.827Z,73.94
2023-01-01T22:22:51.804Z,74.11
2023-01-01T22:25:28.437Z,74.22
2023-01-01T22:27:56.252Z,74.43
2023-01-01T22:30:26.211Z,74.60
2023-01-01T22:32:58.161Z,74.58
2023-01-01T22:35:30.493Z,74.55
2023-01-01T22:37:59.797Z,74.61
2023-01-01T22:40:30.984Z,74.67
2023-01-01T22:43:09.343Z,74.67
2023-01-01T22:45:43.239Z,74.92
2023-01-01T22:48:19.025Z,75.09
2023-01-01T22:50:46.475Z,75.23
2023-01-01T22:53:13.353Z,75.31
2023-01-01T22:55:40.550Z,75.31
2023-01-01T22:58:07.421Z,75.58
2023-01-01T23:00:34.652Z,75.72
2023-01-01T23:03:01.847Z,76.06
2023-01-01T23:05:29.966Z,76.08
2023-01-01T23:07:56.956Z,76.31
2023-01-01T23:10:24.142Z,76.46
2023-01-01T23:12:51.052Z,76.70
2023-01-01T23:15:37.064Z,77.03
2023-01-01T23:18:05.926Z,76.84
2023-01-01T23:20:33.315Z,77.15
2023-01-01T23:23:00.213Z,77.16
2023-01-01T23:25:28.773Z,77.47
2023-01-01T23:27:55.962Z,77.79
2023-01-01T23:30:23.228Z,78.02
2023-01-01T23:32:50.406Z,77.88
2023-01-01T23:35:17.933Z,78.12
2023-01-01T23:37:44.966Z,78.30
2023-01-01T23:40:12.387Z,78.34
2023-01-01T23:42:39.240Z,78.32
2023-01-01T23:45:06.832Z,78.49
2023-01-01T23:47:34.042Z,78.81
2023-01-01T23:50:01.367Z,78.74
2023-01-01T23:52:28.507Z,78.93
2023-01-01T23:54:55.813Z,78.92
2023-01-01T23:57:22.810Z,79.10
2023-01-01T23:59:50.552Z,79.12
